La Salle, Illinois
Current Conditions -  °F | °C
As of 2:15 AM on Friday 28 Nov 2014 (Local Time) from KVYS Reporting Station
Overcast Overcast  
Wind Chill: 10°   Ceiling: 9500
Heat Index: 17°   Visibility: 10mi
Dew Point: 10°   Wind: 5mph
Humidity: 73%   Direction: 190°S
Pressure: 30.37"   Gusts: NA
Location:  41.33°N, 89.09°W
Report Text: KVYS 280815Z AUTO 19004KT 10SM OVC095 M08/M12 A3037 RMK AO2 T10851125
Loading
Personal Weather Stations






























Interactive Weather Map New forecast layout! Learn more

10-Day Weather Forecast

Advertisements
Track Severe Weather on mobile